LICR

Details ICAO LICR (REG)
Name Reggio Calabria
Region Italy
Timezone Europe/Rome (UTC+2.0)
Plans Departing 152
Arriving 194
Stats Elevation 96 ft / 29 m (AMSL)
Location 38.072573° 15.649317°
Runways 2
Magnetic Variation 3.388° E
Sunrise 2018-05-23 03:42:30 UTC / 2018-05-23 05:42:30 Local
Sunset 2018-05-23 18:08:39 UTC / 2018-05-23 20:08:39 Local
Advertisement - Login to hide

Runways

ID Width Length Bearing (true) Bearing (mag) Surface Threshold Offset Overrun Length
11 148 ft / 45 m 6,123 ft / 1,866 m 111.76° 108.37° Asphalt 203 ft / 62 m 0 ft / 0 m
15 148 ft / 45 m 6,640 ft / 2,024 m 151.90° 148.51° Asphalt 784 ft / 239 m 0 ft / 0 m
29 148 ft / 45 m 6,123 ft / 1,866 m 291.77° 288.38° Asphalt 157 ft / 48 m 0 ft / 0 m
33 148 ft / 45 m 6,640 ft / 2,024 m 331.90° 328.51° Asphalt 659 ft / 201 m 0 ft / 0 m

Approach Navaids

Runway Type Ident Frequency Range Bearing (true) Bearing (mag) Slope Elevation
33 Localiser REG 109.30 MHz 18 nm / 33 km 19.16° 15.78° - 95 ft / 29 m (AMSL)

Map

Weather


0- 5 10 15 20 25 30 35+ Temperature / ° C

Clouds and Precipitation
Forecast for 2018-05-23 06:00 UTC. Updated 31 minutes ago

Ground ~20,000 ft ~40,000 ft Winds

METAR

LICR 230450Z 36010KT 9999 FEW040 20/17 Q1013

TAF

Not found

Frequencies

Tower 118.25 MHz TWR
Approach 120.27 MHz APP
Warning: Do not use this data for real-world aviation or navigation. No guarantee of current accuracy is given.